Time;durP1;ratioP1;P1;durP2;ratioP2;P2;SDS_P1;SDS_P2;PMS_P1;PMS_P2;Temp;Humidity;BMP_temperature;BMP_pressure;BME280_temperature;BME280_humidity;BME280_pressure;Samples;Min_cycle;Max_cycle;Signal;HPM_P1;HPM_P2
2022/07/20 00:01:09;;;;;;;;;23.00;22.00;;;;;31.40;36.44;101047.63;5055848;28;45334;-68
2022/07/20 00:03:36;;;;;;;;;22.75;22.00;;;;;31.25;37.52;101035.28;5055094;28;45540;-69
2022/07/20 00:06:02;;;;;;;;;25.25;20.75;;;;;31.30;37.60;101051.16;5054623;28;45422;-69
2022/07/20 00:11:20;;;;;;;;;22.25;18.50;;;;;31.25;38.01;101055.13;5053773;28;45407;-68
2022/07/20 00:13:59;;;;;;;;;24.25;20.00;;;;;31.29;37.92;101053.00;5054460;28;45442;-69
2022/07/20 00:16:26;;;;;;;;;23.33;22.33;;;;;31.22;37.84;101076.13;5054944;28;45445;-71
2022/07/20 00:18:52;;;;;;;;;23.67;22.00;;;;;31.21;37.51;101090.66;5054700;28;45791;-71
2022/07/20 00:21:18;;;;;;;;;21.33;18.67;;;;;31.19;37.94;101125.94;5054812;28;45382;-70
2022/07/20 00:23:43;;;;;;;;;25.33;25.33;;;;;31.08;37.47;101161.09;5058127;28;45476;-70
2022/07/20 00:26:10;;;;;;;;;33.33;27.67;;;;;31.04;38.88;101181.28;5054459;28;45344;-68
2022/07/20 00:28:35;;;;;;;;;28.00;26.33;;;;;30.92;38.08;101211.94;5055852;28;46101;-67
2022/07/20 00:31:01;;;;;;;;;23.00;22.33;;;;;30.88;38.28;101219.44;5052999;28;45218;-69
2022/07/20 00:33:27;;;;;;;;;23.33;22.33;;;;;30.87;38.37;101222.25;5042313;28;45415;-69
2022/07/20 00:35:53;;;;;;;;;25.00;22.00;;;;;30.81;38.92;101219.00;5049840;28;45395;-68
2022/07/20 00:38:18;;;;;;;;;21.00;21.00;;;;;30.71;38.95;101185.53;5054379;28;45514;-68
2022/07/20 00:40:44;;;;;;;;;26.00;24.50;;;;;30.67;38.85;101166.97;5054073;28;45359;-69
2022/07/20 00:43:10;;;;;;;;;25.67;23.33;;;;;30.63;39.31;101147.41;5054278;28;45837;-69
2022/07/20 00:45:35;;;;;;;;;22.00;20.33;;;;;30.60;39.16;101136.81;5040378;28;45792;-68
2022/07/20 00:48:01;;;;;;;;;24.67;19.33;;;;;30.43;39.90;101105.69;5053916;28;45413;-69
2022/07/20 00:50:27;;;;;;;;;19.33;18.67;;;;;30.53;40.25;101109.41;5054268;28;45681;-69
2022/07/20 00:52:53;;;;;;;;;22.00;19.00;;;;;30.43;40.15;101074.09;5053740;28;45387;-71
2022/07/20 00:55:23;;;;;;;;;20.33;19.00;;;;;30.49;40.64;101071.91;5054695;28;45356;-68
2022/07/20 00:57:48;;;;;;;;;21.00;19.67;;;;;30.58;41.72;101080.16;5044388;28;45650;-68
2022/07/20 01:00:14;;;;;;;;;23.33;21.33;;;;;30.22;44.93;101075.72;5055448;28;45377;-68
2022/07/20 01:02:44;;;;;;;;;20.00;19.00;;;;;30.11;43.24;101070.25;5052610;28;45677;-68
2022/07/20 01:05:14;;;;;;;;;21.67;21.67;;;;;30.23;43.12;101067.50;5053341;28;45663;-69
2022/07/20 01:07:48;;;;;;;;;19.33;19.33;;;;;30.07;44.70;101014.75;5054033;28;46070;-68
2022/07/20 01:10:16;;;;;;;;;21.33;20.33;;;;;30.14;45.27;101056.53;5058115;28;45699;-68
2022/07/20 01:12:47;;;;;;;;;24.67;24.33;;;;;29.78;47.54;101074.47;5057867;28;45788;-69
2022/07/20 01:15:13;;;;;;;;;28.33;23.67;;;;;29.46;47.90;101061.47;5054276;28;45732;-68
2022/07/20 01:17:38;;;;;;;;;22.67;20.33;;;;;29.21;48.56;101038.13;5053162;28;46140;-69
2022/07/20 01:20:05;;;;;;;;;34.67;28.33;;;;;29.15;47.95;101060.97;5053570;28;45592;-70
2022/07/20 01:22:30;;;;;;;;;24.67;23.33;;;;;29.26;46.83;101072.81;5053829;28;45331;-68
2022/07/20 01:24:56;;;;;;;;;27.33;24.67;;;;;29.33;46.77;101041.75;5056000;28;45785;-69
2022/07/20 01:27:22;;;;;;;;;26.67;24.33;;;;;29.28;46.74;101019.63;5055013;28;46073;-68
2022/07/20 01:29:47;;;;;;;;;29.33;25.00;;;;;29.44;46.32;101028.34;5053353;28;45339;-69
2022/07/20 01:32:13;;;;;;;;;26.00;26.00;;;;;29.55;46.08;101038.34;5053540;28;45505;-73
2022/07/20 01:34:38;;;;;;;;;22.00;21.33;;;;;29.68;45.99;101032.94;5054223;28;45349;-69
2022/07/20 01:37:04;;;;;;;;;28.00;24.00;;;;;29.71;46.07;101032.69;5051805;28;45390;-71
2022/07/20 01:39:30;;;;;;;;;28.67;28.00;;;;;29.76;46.39;101041.34;5038060;28;46128;-68
2022/07/20 01:41:56;;;;;;;;;33.33;30.33;;;;;29.74;46.17;101035.19;5036906;28;45300;-69
2022/07/20 01:44:22;;;;;;;;;34.00;32.00;;;;;29.80;47.25;101030.22;5052441;28;45304;-70
2022/07/20 01:46:51;;;;;;;;;40.67;34.00;;;;;29.80;47.00;101045.53;5018757;28;47034;-69
2022/07/20 01:49:20;;;;;;;;;42.00;34.00;;;;;29.82;47.16;101072.41;5051147;28;45549;-70
2022/07/20 01:51:46;;;;;;;;;31.33;29.67;;;;;29.77;46.65;101073.63;5052758;28;45506;-70
2022/07/20 01:54:11;;;;;;;;;36.00;33.00;;;;;29.83;46.54;101075.03;5038508;28;45415;-70
2022/07/20 01:56:41;;;;;;;;;35.00;33.00;;;;;29.94;46.42;101075.06;5055338;28;45985;-69
2022/07/20 01:59:06;;;;;;;;;35.00;31.67;;;;;29.97;46.28;101082.06;5056908;28;45496;-68
2022/07/20 02:01:41;;;;;;;;;33.67;30.33;;;;;29.97;46.41;101106.38;5052805;28;45479;-69
2022/07/20 02:04:07;;;;;;;;;43.00;36.00;;;;;29.99;46.53;101148.53;5017795;28;45648;-69
2022/07/20 02:06:32;;;;;;;;;36.33;33.00;;;;;29.99;46.10;101164.72;5054904;28;45647;-68
2022/07/20 02:08:58;;;;;;;;;40.33;34.33;;;;;30.02;46.13;101183.41;5031170;28;46025;-70
2022/07/20 02:11:24;;;;;;;;;42.00;33.67;;;;;29.85;46.50;101134.28;5041941;28;45794;-69
2022/07/20 02:13:49;;;;;;;;;45.33;37.00;;;;;29.81;48.30;101114.75;5045898;28;45397;-69
2022/07/20 02:16:15;;;;;;;;;42.33;37.33;;;;;29.71;47.73;101124.47;5038639;28;45524;-69
2022/07/20 02:18:52;;;;;;;;;44.33;37.00;;;;;29.77;47.87;101129.44;5059565;28;45575;-71
2022/07/20 02:21:21;;;;;;;;;44.33;36.00;;;;;29.83;47.05;101118.22;5057017;28;45363;-70
2022/07/20 02:23:47;;;;;;;;;37.33;33.00;;;;;29.88;46.41;101118.75;5057029;28;45381;-69
2022/07/20 02:26:13;;;;;;;;;45.67;37.00;;;;;29.91;46.81;101148.19;5056446;28;45667;-69
2022/07/20 02:28:39;;;;;;;;;52.00;43.00;;;;;29.49;49.05;101168.31;5059488;28;45659;-70
2022/07/20 02:31:06;;;;;;;;;52.33;43.33;;;;;29.28;49.16;101171.56;5056457;28;45992;-69
2022/07/20 02:33:32;;;;;;;;;51.67;43.00;;;;;29.18;49.54;101179.41;5055859;28;45761;-69
2022/07/20 02:35:58;;;;;;;;;48.00;39.67;;;;;29.08;50.45;101174.78;5054381;28;47221;-70
2022/07/20 02:38:24;;;;;;;;;46.67;37.00;;;;;29.17;49.11;101171.44;5055814;28;45381;-69
2022/07/20 02:40:50;;;;;;;;;44.33;36.67;;;;;29.34;48.60;101176.53;5055811;28;45699;-69
2022/07/20 02:43:16;;;;;;;;;47.00;38.33;;;;;29.36;48.18;101162.94;5059676;28;45616;-70
2022/07/20 02:45:41;;;;;;;;;47.67;39.67;;;;;29.30;50.47;101179.53;5055702;28;45670;-68
2022/07/20 02:48:07;;;;;;;;;50.33;43.00;;;;;28.85;50.77;101179.88;5057825;28;45505;-67
2022/07/20 02:50:36;;;;;;;;;51.00;42.00;;;;;28.89;50.07;101205.66;5056705;28;45593;-69
2022/07/20 02:53:09;;;;;;;;;50.67;42.00;;;;;28.90;49.45;101179.56;5056239;28;45491;-69
2022/07/20 02:55:35;;;;;;;;;48.67;40.00;;;;;28.32;48.76;101071.16;5055998;28;45694;-69
2022/07/20 02:58:01;;;;;;;;;50.00;41.33;;;;;29.17;48.33;101215.47;5059720;28;45296;-68
2022/07/20 03:00:26;;;;;;;;;49.67;41.67;;;;;29.22;47.56;101228.63;5056358;28;45391;-69
2022/07/20 03:02:52;;;;;;;;;46.33;39.67;;;;;29.26;47.61;101251.75;5056357;28;45368;-69
2022/07/20 03:05:18;;;;;;;;;47.00;39.00;;;;;29.30;47.08;101263.19;5058271;28;45340;-68
2022/07/20 03:07:44;;;;;;;;;48.00;39.33;;;;;29.36;47.16;101300.53;5056666;28;45481;-69
2022/07/20 03:10:11;;;;;;;;;52.33;41.67;;;;;29.34;47.20;101305.16;5055463;28;45970;-68
2022/07/20 03:12:37;;;;;;;;;48.67;40.00;;;;;29.32;47.71;101290.91;5055952;28;45508;-71
2022/07/20 03:15:03;;;;;;;;;48.00;41.00;;;;;29.24;47.13;101280.66;5056448;28;45413;-71
2022/07/20 03:17:29;;;;;;;;;49.67;42.00;;;;;29.23;47.26;101292.41;5056892;28;45431;-69
2022/07/20 03:19:55;;;;;;;;;53.00;43.00;;;;;29.17;47.20;101290.13;5055825;28;45406;-71
2022/07/20 03:22:20;;;;;;;;;54.00;43.33;;;;;29.24;47.16;101288.75;5056024;28;45508;-69
2022/07/20 03:24:46;;;;;;;;;53.33;42.00;;;;;29.23;46.81;101287.00;5055352;28;45496;-68
2022/07/20 03:27:12;;;;;;;;;51.33;41.00;;;;;29.12;47.00;101270.72;5055637;28;45378;-68
2022/07/20 03:29:37;;;;;;;;;50.00;41.50;;;;;29.28;47.29;101294.78;5044135;28;45524;-69
2022/07/20 03:32:04;;;;;;;;;45.00;38.67;;;;;29.28;47.13;101284.00;5053977;28;45494;-72
2022/07/20 03:34:30;;;;;;;;;47.67;41.00;;;;;29.15;47.39;101265.94;5055311;28;46056;-70
2022/07/20 03:36:56;;;;;;;;;49.00;40.67;;;;;29.25;47.66;101295.00;5045106;28;45505;-72
2022/07/20 03:39:21;;;;;;;;;47.33;39.33;;;;;29.17;47.67;101277.50;5052433;28;45449;-68
2022/07/20 03:41:47;;;;;;;;;48.00;40.00;;;;;29.20;47.62;101283.66;5037157;28;45522;-69
2022/07/20 03:44:13;;;;;;;;;48.67;41.67;;;;;29.18;47.91;101290.00;5054547;28;46539;-68
2022/07/20 03:46:38;;;;;;;;;52.67;42.00;;;;;29.02;48.67;101293.81;5055181;28;45347;-69
2022/07/20 03:49:04;;;;;;;;;47.00;39.00;;;;;28.91;49.76;101281.91;5055057;28;45469;-68
2022/07/20 03:51:30;;;;;;;;;51.67;43.00;;;;;28.64;49.89;101314.25;5056403;28;45781;-68
2022/07/20 03:53:55;;;;;;;;;51.33;43.00;;;;;28.43;51.29;101326.41;5054890;28;45482;-69
2022/07/20 03:56:22;;;;;;;;;47.33;40.33;;;;;28.29;51.54;101333.50;5055248;28;45413;-69
2022/07/20 03:58:48;;;;;;;;;51.67;42.00;;;;;28.25;51.81;101350.81;5059568;28;45344;-69
2022/07/20 04:01:13;;;;;;;;;49.33;39.00;;;;;28.27;51.78;101373.16;5038799;28;45545;-69
2022/07/20 04:03:39;;;;;;;;;49.00;39.33;;;;;28.29;51.87;101384.69;5054740;28;45456;-68
2022/07/20 04:06:06;;;;;;;;;46.00;38.33;;;;;28.38;51.31;101363.50;5042935;28;45347;-66
2022/07/20 04:08:32;;;;;;;;;45.33;37.67;;;;;28.36;53.56;101360.94;5053084;28;45505;-68
2022/07/20 04:10:57;;;;;;;;;51.00;41.33;;;;;28.04;52.35;101339.56;5055153;28;45549;-67
2022/07/20 04:13:23;;;;;;;;;45.00;37.33;;;;;27.87;52.84;101345.13;5035662;28;48129;-67
2022/07/20 04:15:48;;;;;;;;;42.33;36.67;;;;;27.90;53.74;101345.81;5036378;28;45836;-68
2022/07/20 04:18:17;;;;;;;;;40.00;34.33;;;;;27.86;52.77;101309.28;5038572;28;45475;-68
2022/07/20 04:20:43;;;;;;;;;43.33;35.67;;;;;27.76;53.03;101305.34;5059274;28;45394;-68
2022/07/20 04:23:09;;;;;;;;;41.67;34.67;;;;;27.71;52.76;101299.38;5054464;28;45481;-67
2022/07/20 04:25:34;;;;;;;;;39.00;35.33;;;;;27.64;50.89;101281.88;5054872;28;45524;-68
2022/07/20 04:28:00;;;;;;;;;30.33;26.33;;;;;27.45;51.91;101280.34;5055017;28;45528;-68
2022/07/20 04:30:26;;;;;;;;;33.00;30.33;;;;;27.37;50.96;101269.16;5038583;28;45550;-68
2022/07/20 04:32:51;;;;;;;;;33.33;30.00;;;;;27.05;52.85;101279.09;5055492;28;45663;-67
2022/07/20 04:35:17;;;;;;;;;31.67;30.33;;;;;26.85;52.60;101274.88;5049756;28;45376;-68
2022/07/20 04:37:43;;;;;;;;;38.67;32.67;;;;;26.62;51.97;101276.19;5057471;28;45512;-68
2022/07/20 04:40:09;;;;;;;;;42.33;34.67;;;;;26.42;52.27;101274.63;5054443;28;45814;-68
2022/07/20 04:42:35;;;;;;;;;37.67;32.33;;;;;26.27;54.76;101260.22;5053347;28;46229;-68
2022/07/20 04:45:01;;;;;;;;;40.33;33.67;;;;;26.25;55.26;101234.41;5055477;28;45400;-69
2022/07/20 04:47:26;;;;;;;;;40.33;32.67;;;;;26.01;54.67;101221.41;5057063;28;45461;-69
2022/07/20 04:49:52;;;;;;;;;37.67;31.00;;;;;25.76;54.55;101221.84;5054476;28;45408;-69
2022/07/20 04:52:21;;;;;;;;;29.67;28.00;;;;;25.51;53.87;101222.28;5035048;28;46129;-68
2022/07/20 04:54:47;;;;;;;;;31.67;30.33;;;;;25.54;52.55;101254.31;5038675;28;45385;-69
2022/07/20 04:57:12;;;;;;;;;31.00;29.67;;;;;25.21;52.94;101262.28;5053733;28;45500;-67
2022/07/20 04:59:38;;;;;;;;;25.00;25.00;;;;;25.11;53.22;101277.94;5053973;28;45497;-68
2022/07/20 05:02:04;;;;;;;;;26.00;23.00;;;;;25.04;53.21;101284.53;5056212;28;45515;-68
2022/07/20 05:04:29;;;;;;;;;27.33;27.33;;;;;25.29;54.19;101327.94;5054956;28;45888;-67
2022/07/20 05:06:55;;;;;;;;;28.00;23.67;;;;;25.36;54.52;101337.41;5053772;28;45930;-67
2022/07/20 05:09:21;;;;;;;;;26.33;25.67;;;;;25.45;54.56;101359.38;5053735;28;45618;-68
2022/07/20 05:11:46;;;;;;;;;24.00;22.00;;;;;25.52;55.64;101344.69;5053157;28;46070;-66
2022/07/20 05:14:12;;;;;;;;;26.67;22.00;;;;;25.65;54.10;101334.19;5053705;28;45994;-68
2022/07/20 05:16:38;;;;;;;;;22.00;19.67;;;;;25.87;53.10;101323.25;5055499;28;45455;-68
2022/07/20 05:19:03;;;;;;;;;23.67;21.00;;;;;25.97;54.07;101328.03;5055361;28;46072;-66
2022/07/20 05:21:33;;;;;;;;;24.67;22.00;;;;;25.97;54.21;101348.66;5050693;28;45476;-66
2022/07/20 05:24:02;;;;;;;;;20.67;19.67;;;;;26.01;53.48;101297.41;5051870;28;45453;-67
2022/07/20 05:26:27;;;;;;;;;19.33;18.00;;;;;26.18;52.91;101252.69;5052512;28;45343;-66
2022/07/20 05:28:53;;;;;;;;;19.00;17.00;;;;;26.38;52.12;101256.94;5057084;28;45496;-67
2022/07/20 05:31:18;;;;;;;;;26.33;23.67;;;;;26.23;53.78;101232.66;5054208;28;45453;-67
2022/07/20 05:33:44;;;;;;;;;26.67;23.33;;;;;25.87;51.87;101207.88;5052519;28;45510;-67
2022/07/20 05:36:11;;;;;;;;;22.67;22.67;;;;;25.57;50.39;101228.16;5053787;28;45465;-67
2022/07/20 05:38:37;;;;;;;;;25.67;22.00;;;;;25.46;52.16;101248.47;5058525;28;45382;-66
2022/07/20 05:41:07;;;;;;;;;22.67;22.67;;;;;25.18;50.67;101234.69;5054956;28;45823;-67
2022/07/20 05:43:32;;;;;;;;;24.00;23.00;;;;;25.10;51.43;101276.19;5034473;28;45770;-67
2022/07/20 05:45:58;;;;;;;;;24.00;23.00;;;;;24.84;52.52;101235.47;5053014;28;45568;-67
2022/07/20 05:48:23;;;;;;;;;23.33;22.33;;;;;24.84;51.97;101254.22;5053503;28;45304;-68
2022/07/20 05:50:49;;;;;;;;;25.67;23.00;;;;;25.01;52.53;101295.38;5042762;28;45532;-67
2022/07/20 05:53:18;;;;;;;;;17.67;17.67;;;;;25.03;53.04;101289.00;5044759;28;45461;-66
2022/07/20 05:55:46;;;;;;;;;24.00;21.33;;;;;25.12;54.86;101301.09;5049474;28;45477;-68
2022/07/20 08:13:18;;;;;;;;;20.33;20.00;;;;;22.67;65.00;101441.84;5152734;27;45631;-82
2022/07/20 08:15:51;;;;;;;;;27.33;24.33;;;;;22.92;64.39;101422.22;5127043;27;45341;-80
2022/07/20 08:18:17;;;;;;;;;31.33;28.00;;;;;22.96;62.80;101389.97;5146851;27;45441;-76
2022/07/20 08:20:42;;;;;;;;;25.33;23.67;;;;;23.33;62.91;101438.47;5145711;27;45321;-78
2022/07/20 08:23:08;;;;;;;;;28.00;24.33;;;;;23.29;61.70;101410.97;5144513;27;46379;-78
2022/07/20 08:25:34;;;;;;;;;37.33;28.00;;;;;23.20;62.31;101428.25;5144158;27;45415;-76
2022/07/20 08:28:13;;;;;;;;;28.00;25.00;;;;;23.26;61.85;101429.81;5140540;27;45488;-78
2022/07/20 08:30:41;;;;;;;;;27.33;25.67;;;;;23.39;61.78;101430.19;5138119;27;45350;-79
2022/07/20 08:33:11;;;;;;;;;27.33;27.33;;;;;23.33;61.96;101425.09;5139368;27;45347;-76
2022/07/20 08:35:37;;;;;;;;;28.00;23.33;;;;;23.50;61.22;101438.66;5140402;27;45337;-77
2022/07/20 08:38:04;;;;;;;;;25.67;24.00;;;;;23.57;61.65;101444.63;5139373;27;45380;-76
2022/07/20 08:40:33;;;;;;;;;23.33;22.33;;;;;23.89;60.86;101437.94;5137499;27;45450;-75
2022/07/20 08:43:00;;;;;;;;;26.00;24.67;;;;;24.21;59.50;101431.19;5136484;27;45306;-80
2022/07/20 08:45:32;;;;;;;;;28.00;25.33;;;;;24.38;57.53;101430.44;5135890;27;45376;-78
2022/07/20 08:48:04;;;;;;;;;34.67;29.33;;;;;24.09;58.02;101416.56;5136466;27;45497;-78
2022/07/20 08:50:32;;;;;;;;;28.33;24.67;;;;;24.25;58.04;101439.94;5136816;27;45354;-77
2022/07/20 08:52:59;;;;;;;;;23.33;22.67;;;;;24.43;57.53;101446.31;5131148;27;47815;-79
2022/07/20 08:55:27;;;;;;;;;24.67;22.00;;;;;24.69;57.09;101447.84;5134480;27;45440;-79
2022/07/20 08:57:53;;;;;;;;;20.67;19.67;;;;;24.89;56.46;101445.13;5134192;27;45387;-77
2022/07/20 09:00:20;;;;;;;;;26.33;23.00;;;;;25.12;55.33;101435.09;5139086;27;45440;-75
2022/07/20 09:03:01;;;;;;;;;27.67;23.33;;;;;25.00;55.59;101436.56;5130076;27;46845;-79
2022/07/20 09:05:32;;;;;;;;;22.67;22.67;;;;;24.83;55.79;101401.66;5136658;27;45465;-76
2022/07/20 09:07:59;;;;;;;;;23.00;21.67;;;;;24.98;55.44;101409.81;5133054;27;45463;-78
2022/07/20 09:10:32;;;;;;;;;28.33;23.67;;;;;25.15;54.10;101416.19;5120568;27;45371;-80
2022/07/20 09:13:00;;;;;;;;;26.00;23.67;;;;;25.29;54.06;101434.31;5133263;27;46289;-79
2022/07/20 09:15:48;;;;;;;;;26.67;20.67;;;;;25.35;53.86;101409.91;5133907;27;45394;-76
2022/07/20 09:18:15;;;;;;;;;20.67;20.67;;;;;25.35;54.03;101370.56;5132319;27;45528;-69
2022/07/20 09:20:45;;;;;;;;;22.67;20.67;;;;;25.06;53.18;101304.97;5134486;27;45501;-70
2022/07/20 09:23:31;;;;;;;;;21.33;19.67;;;;;25.67;52.77;101386.81;5127326;27;45368;-78
2022/07/20 09:26:13;;;;;;;;;21.33;19.33;;;;;25.48;53.01;101367.25;5107492;27;45526;-78
2022/07/20 09:28:53;;;;;;;;;19.67;19.67;;;;;25.88;52.79;101422.47;5118917;27;45557;-79
2022/07/20 09:31:33;;;;;;;;;17.33;17.00;;;;;25.73;52.97;101389.19;5122339;27;45305;-79
2022/07/20 09:34:21;;;;;;;;;21.33;19.67;;;;;25.94;52.08;101426.66;5108095;27;45518;-80
2022/07/20 09:36:47;;;;;;;;;17.67;17.67;;;;;25.91;51.95;101426.78;5124855;27;45246;-80
2022/07/20 09:39:20;;;;;;;;;18.00;15.33;;;;;25.80;51.62;101412.09;5118760;27;45236;-74
2022/07/20 09:41:56;;;;;;;;;18.33;17.33;;;;;25.44;52.68;101403.19;5114744;27;45222;-76
2022/07/20 09:44:27;;;;;;;;;17.33;16.67;;;;;25.11;52.77;101394.03;5096769;27;46053;-76
2022/07/20 09:46:53;;;;;;;;;15.00;14.00;;;;;25.31;53.03;101443.16;5111009;27;45454;-80
2022/07/20 09:49:21;;;;;;;;;15.00;13.67;;;;;25.07;53.97;101443.38;5121421;27;45427;-80
2022/07/20 09:51:58;;;;;;;;;18.33;16.33;;;;;25.01;54.00;101459.75;5124413;27;45597;-80
2022/07/20 09:54:23;;;;;;;;;16.00;15.00;;;;;24.98;54.52;101457.19;5109495;27;45453;-76
2022/07/20 09:56:52;;;;;;;;;16.33;14.33;;;;;25.04;54.29;101453.38;5122201;27;45512;-78
2022/07/20 09:59:20;;;;;;;;;15.00;13.33;;;;;25.09;53.93;101464.75;5103850;27;45412;-76
2022/07/20 10:01:50;;;;;;;;;11.00;10.00;;;;;25.19;54.73;101468.75;5108477;27;45295;-77
2022/07/20 10:04:17;;;;;;;;;15.67;14.00;;;;;25.01;54.51;101449.03;5117293;27;45504;-79
2022/07/20 10:06:46;;;;;;;;;15.00;14.00;;;;;24.88;54.98;101454.09;5117805;27;45474;-76
2022/07/20 10:09:14;;;;;;;;;15.00;13.67;;;;;24.62;55.14;101430.31;5110949;27;45455;-78
2022/07/20 10:11:40;;;;;;;;;13.33;12.00;;;;;24.43;55.73;101395.44;5115175;27;46055;-73
2022/07/20 10:14:07;;;;;;;;;14.33;12.67;;;;;24.64;55.57;101425.75;5118474;27;45535;-78
2022/07/20 10:16:39;;;;;;;;;16.00;12.00;;;;;24.62;55.96;101409.75;5118447;27;45590;-79
2022/07/20 10:19:07;;;;;;;;;13.33;11.33;;;;;25.02;54.65;101458.81;5120431;27;45791;-78
2022/07/20 10:21:47;;;;;;;;;11.67;10.00;;;;;25.13;54.99;101467.22;5120141;27;45630;-78
2022/07/20 10:24:30;;;;;;;;;10.67;10.67;;;;;24.66;55.66;101438.13;5121729;27;46057;-78
2022/07/20 10:27:08;;;;;;;;;21.67;15.00;;;;;24.68;55.36;101487.16;5122312;27;45486;-80
2022/07/20 10:29:44;;;;;;;;;13.67;12.00;;;;;24.52;55.12;101472.72;5117190;27;45518;-75
2022/07/20 10:32:14;;;;;;;;;8.67;8.67;;;;;24.26;55.67;101474.69;5114530;27;45511;-77
2022/07/20 10:34:43;;;;;;;;;11.67;11.67;;;;;24.26;55.46;101439.91;5106581;27;45436;-73
2022/07/20 10:37:23;;;;;;;;;9.67;9.67;;;;;24.45;55.58;101456.00;5115919;27;45550;-77
2022/07/20 10:39:53;;;;;;;;;11.67;9.33;;;;;24.38;56.07;101451.00;5120362;27;45492;-77
2022/07/20 10:42:24;;;;;;;;;9.00;9.00;;;;;24.34;55.81;101451.16;5120990;27;45497;-72
2022/07/20 10:44:51;;;;;;;;;9.33;9.33;;;;;24.39;55.63;101452.72;5120371;27;46394;-76
2022/07/20 10:47:38;;;;;;;;;14.33;12.00;;;;;24.25;56.01;101453.34;5120284;27;45489;-73
2022/07/20 10:50:05;;;;;;;;;9.33;9.33;;;;;24.15;55.45;101443.97;5120856;27;45473;-74
2022/07/20 10:52:33;;;;;;;;;11.00;9.33;;;;;24.06;55.34;101429.19;5118960;27;45956;-77
2022/07/20 10:55:00;;;;;;;;;11.33;9.33;;;;;23.94;55.60;101417.19;5125838;27;45482;-74
2022/07/20 10:57:27;;;;;;;;;7.00;6.33;;;;;23.95;55.73;101402.91;5123309;27;45505;-76
2022/07/20 11:00:08;;;;;;;;;11.33;9.00;;;;;24.32;55.87;101465.50;5119829;27;45486;-79
2022/07/20 11:02:37;;;;;;;;;11.00;10.00;;;;;24.06;56.47;101438.09;5117360;27;45761;-76
2022/07/20 11:05:04;;;;;;;;;10.00;10.00;;;;;24.15;56.95;101478.78;5117814;27;46856;-73
2022/07/20 11:07:34;;;;;;;;;12.67;10.33;;;;;23.99;57.22;101486.56;5118331;27;45517;-70
2022/07/20 11:10:17;;;;;;;;;11.00;11.00;;;;;23.93;57.18;101452.94;5103937;27;45610;-72
2022/07/20 11:12:43;;;;;;;;;13.00;11.33;;;;;24.15;57.08;101482.31;5118968;27;45666;-76
2022/07/20 11:15:09;;;;;;;;;12.33;11.00;;;;;24.04;57.40;101476.56;5116781;27;45893;-79
2022/07/20 11:17:35;;;;;;;;;11.67;10.00;;;;;23.95;57.84;101472.47;5117858;27;45427;-74
2022/07/20 11:20:01;;;;;;;;;11.00;10.00;;;;;23.13;57.87;101338.56;5117861;27;45276;-76
2022/07/20 11:22:27;;;;;;;;;9.00;9.00;;;;;23.86;57.76;101454.13;5117884;27;45617;-78
2022/07/20 11:24:54;;;;;;;;;9.33;8.33;;;;;23.94;57.16;101435.94;5121095;27;46217;-72
2022/07/20 11:27:20;;;;;;;;;9.33;9.33;;;;;24.17;57.15;101450.13;5119446;27;45445;-75
2022/07/20 11:29:47;;;;;;;;;11.67;9.00;;;;;24.08;57.40;101425.53;5117524;27;45616;-78
2022/07/20 11:32:13;;;;;;;;;13.67;11.00;;;;;24.11;57.51;101446.78;5114145;27;45941;-72
2022/07/20 11:34:49;;;;;;;;;12.67;11.00;;;;;24.16;57.49;101465.34;5106663;27;45493;-74
2022/07/20 11:37:18;;;;;;;;;11.33;9.67;;;;;24.13;57.63;101466.34;5115815;27;45416;-74
2022/07/20 11:39:45;;;;;;;;;12.00;12.00;;;;;24.25;57.09;101453.34;5111140;27;45421;-71
2022/07/20 11:42:13;;;;;;;;;12.00;11.33;;;;;24.23;56.74;101444.53;5111946;27;45290;-69
2022/07/20 11:44:39;;;;;;;;;9.67;9.67;;;;;24.29;56.66;101444.25;5115197;27;45424;-74
2022/07/20 11:47:05;;;;;;;;;13.00;13.00;;;;;24.31;57.25;101445.91;5114972;27;45459;-71
2022/07/20 11:49:35;;;;;;;;;14.33;14.33;;;;;24.05;57.61;101414.94;5115131;27;45404;-77
2022/07/20 11:52:05;;;;;;;;;18.67;13.67;;;;;24.11;57.66;101429.88;5116032;27;45439;-75
2022/07/20 11:54:35;;;;;;;;;17.00;14.67;;;;;24.07;58.32;101445.19;5115943;27;45873;-71
2022/07/20 11:57:02;;;;;;;;;13.67;12.00;;;;;23.98;58.57;101437.53;5109961;27;45502;-78
2022/07/20 11:59:28;;;;;;;;;14.00;13.33;;;;;24.08;57.72;101436.22;5114073;27;45630;-77
2022/07/20 12:01:56;;;;;;;;;18.67;15.00;;;;;23.96;59.22;101439.41;5114658;27;45334;-75
2022/07/20 12:04:22;;;;;;;;;17.67;15.33;;;;;23.98;58.22;101436.69;5114246;27;45453;-73
2022/07/20 12:06:52;;;;;;;;;17.33;16.00;;;;;24.04;57.90;101444.47;5114591;27;45807;-75
2022/07/20 12:09:20;;;;;;;;;15.67;11.33;;;;;24.08;58.20;101454.06;5102439;27;45318;-76
2022/07/20 12:12:04;;;;;;;;;19.33;17.67;;;;;23.91;58.09;101417.34;5113181;27;46054;-71
2022/07/20 12:14:41;;;;;;;;;20.33;19.00;;;;;23.91;58.37;101442.28;5115746;27;46696;-72
2022/07/20 12:17:33;;;;;;;;;18.00;18.00;;;;;23.75;58.45;101433.16;5118801;27;45500;-71
2022/07/20 12:20:00;;;;;;;;;17.67;17.33;;;;;23.78;58.87;101454.44;5114621;27;45610;-71
2022/07/20 12:22:33;;;;;;;;;20.67;19.00;;;;;23.65;59.17;101443.34;5100182;27;45425;-71
2022/07/20 12:25:09;;;;;;;;;23.00;19.00;;;;;23.56;60.18;101445.53;5114948;27;45360;-72
2022/07/20 12:27:39;;;;;;;;;20.67;18.33;;;;;23.41;61.27;101449.72;5113417;27;45519;-72
2022/07/20 12:30:37;;;;;;;;;19.67;16.67;;;;;23.34;61.46;101442.88;5117917;27;45296;-71
2022/07/20 12:33:10;;;;;;;;;17.00;17.00;;;;;23.37;61.64;101440.97;5088626;27;45604;-71
2022/07/20 12:35:36;;;;;;;;;23.33;22.67;;;;;23.43;62.90;101448.72;5113963;27;45445;-72
2022/07/20 12:38:03;;;;;;;;;25.33;23.00;;;;;23.24;63.49;101435.22;5113922;27;45777;-72
2022/07/20 12:40:44;;;;;;;;;22.33;21.00;;;;;23.24;63.12;101437.03;5107519;27;45360;-71
2022/07/20 12:43:30;;;;;;;;;22.00;20.33;;;;;23.19;63.10;101399.78;5113378;27;45463;-75
2022/07/20 12:46:14;;;;;;;;;25.33;21.00;;;;;23.21;62.86;101430.00;5118144;27;46122;-74
2022/07/20 12:48:43;;;;;;;;;23.33;22.00;;;;;23.13;63.33;101417.88;5115413;27;45667;-72
2022/07/20 12:51:10;;;;;;;;;28.33;22.00;;;;;22.71;63.27;101344.69;5114133;27;45855;-73
2022/07/20 12:53:36;;;;;;;;;24.67;21.67;;;;;22.80;63.01;101301.59;5114288;27;45569;-73
2022/07/20 12:56:05;;;;;;;;;21.67;19.67;;;;;24.00;61.71;101422.31;5110634;27;45852;-73
2022/07/20 12:58:31;;;;;;;;;23.67;21.33;;;;;24.51;60.02;101426.31;5105030;27;46083;-75
2022/07/20 13:00:57;;;;;;;;;22.00;22.00;;;;;24.61;59.13;101409.84;5120333;27;45499;-72
2022/07/20 13:03:23;;;;;;;;;25.00;20.67;;;;;24.98;57.90;101431.25;5114774;27;45600;-75
2022/07/20 13:05:50;;;;;;;;;22.00;21.67;;;;;24.75;57.92;101435.03;5119320;27;47772;-73
2022/07/20 13:08:16;;;;;;;;;20.67;17.00;;;;;24.92;58.03;101433.38;5102646;27;45512;-74
2022/07/20 13:10:42;;;;;;;;;24.67;19.67;;;;;25.11;56.38;101430.69;5107392;27;45479;-75
2022/07/20 13:13:08;;;;;;;;;16.00;16.00;;;;;25.17;55.89;101435.75;5106854;27;45582;-76
2022/07/20 13:15:33;;;;;;;;;21.00;17.67;;;;;24.26;57.09;101337.31;5101032;27;45379;-76
2022/07/20 13:17:59;;;;;;;;;24.33;20.33;;;;;24.55;58.03;101419.88;5119280;27;45479;-74
2022/07/20 13:20:24;;;;;;;;;19.67;17.33;;;;;24.24;58.25;101387.38;5121637;27;45549;-75
2022/07/20 13:22:51;;;;;;;;;17.00;15.33;;;;;24.44;58.57;101403.41;5122050;27;45495;-73
2022/07/20 13:25:17;;;;;;;;;22.67;19.33;;;;;24.53;58.37;101420.88;5120284;27;45488;-72
2022/07/20 13:27:45;;;;;;;;;19.00;18.67;;;;;24.52;58.54;101403.09;5116876;27;45596;-73
2022/07/20 13:30:12;;;;;;;;;17.67;17.67;;;;;24.73;58.22;101406.59;5119867;27;45402;-74
2022/07/20 13:32:38;;;;;;;;;18.00;17.67;;;;;24.98;57.25;101398.25;5119892;27;45443;-78